createdAt,value
2022-12-17T08:31:33.508Z,17.75
2022-12-17T08:34:16.747Z,17.77
2022-12-17T08:37:01.054Z,16.25
2022-12-17T08:39:48.762Z,17.27
2022-12-17T08:42:38.189Z,15.93
2022-12-17T08:45:24.033Z,16.25
2022-12-17T08:48:17.958Z,16.45
2022-12-17T08:51:02.042Z,17.05
2022-12-17T08:53:45.212Z,17.05
2022-12-17T08:56:30.812Z,17.80
2022-12-17T08:59:15.350Z,14.57
2022-12-17T09:01:58.675Z,16.45
2022-12-17T09:04:44.510Z,15.30
2022-12-17T09:07:27.749Z,15.70
2022-12-17T09:10:13.849Z,16.65
2022-12-17T09:13:04.213Z,16.85
2022-12-17T09:15:48.513Z,17.15
2022-12-17T09:18:37.125Z,16.73
2022-12-17T09:21:23.988Z,15.65
2022-12-17T09:24:07.570Z,16.83
2022-12-17T09:26:59.382Z,18.40
2022-12-17T09:29:50.663Z,16.90
2022-12-17T09:32:34.348Z,16.75
2022-12-17T09:35:21.800Z,16.23
2022-12-17T09:38:10.251Z,16.80
2022-12-17T09:40:54.701Z,18.48
2022-12-17T09:43:49.536Z,16.90
2022-12-17T09:52:35.703Z,16.10
2022-12-17T09:55:36.054Z,15.90
2022-12-17T09:58:19.982Z,17.77
2022-12-17T10:01:05.015Z,17.65
2022-12-17T10:03:50.675Z,17.92
2022-12-17T10:06:42.127Z,17.42
2022-12-17T10:09:31.187Z,16.70
2022-12-17T10:12:27.991Z,17.00
2022-12-17T10:15:11.699Z,18.45
2022-12-17T10:17:55.370Z,17.55
2022-12-17T10:20:45.418Z,18.63
2022-12-17T10:23:39.166Z,17.70
2022-12-17T10:26:22.630Z,18.25
2022-12-17T10:29:17.497Z,19.63
2022-12-17T10:32:12.831Z,18.75
2022-12-17T10:35:05.215Z,17.58
2022-12-17T10:37:53.519Z,18.25
2022-12-17T10:40:41.666Z,18.88
2022-12-17T10:43:44.517Z,18.98
2022-12-17T10:46:52.505Z,17.42
2022-12-17T10:49:38.215Z,17.20
2022-12-17T10:52:34.501Z,18.15
2022-12-17T10:55:20.751Z,17.90
2022-12-17T10:58:06.469Z,17.67
2022-12-17T11:00:52.348Z,19.60
2022-12-17T11:04:03.908Z,20.35
2022-12-17T11:06:50.855Z,19.15
2022-12-17T11:09:44.591Z,19.60
2022-12-17T11:12:31.096Z,17.15
2022-12-17T11:15:19.444Z,17.13
2022-12-17T11:18:10.913Z,16.38
2022-12-17T11:21:10.281Z,18.23
2022-12-17T11:23:59.895Z,15.85
2022-12-17T11:26:47.715Z,17.80
2022-12-17T11:29:30.920Z,17.92
2022-12-17T11:32:32.951Z,17.75
2022-12-17T11:35:22.857Z,17.17
2022-12-17T11:39:22.458Z,17.38
2022-12-17T11:41:45.947Z,15.10
2022-12-17T11:44:39.252Z,16.13
2022-12-17T11:47:32.887Z,17.30
2022-12-17T11:50:26.944Z,15.93
2022-12-17T11:53:28.349Z,16.42
2022-12-17T11:56:16.833Z,16.65
2022-12-17T11:59:07.038Z,15.55
2022-12-17T12:01:56.732Z,15.35
2022-12-17T12:05:01.180Z,16.30
2022-12-17T12:07:51.416Z,17.23
2022-12-17T12:10:46.118Z,16.80
2022-12-17T12:13:40.027Z,16.95
2022-12-17T12:16:31.477Z,17.33
2022-12-17T12:19:26.393Z,18.50
2022-12-17T12:22:15.519Z,17.17
2022-12-17T12:25:24.147Z,16.33
2022-12-17T12:28:19.828Z,15.75
2022-12-17T12:31:13.984Z,18.55
2022-12-17T12:34:05.504Z,18.25
2022-12-17T12:36:50.097Z,18.13
2022-12-17T12:39:44.492Z,18.17
2022-12-17T12:42:35.135Z,18.42
2022-12-17T12:45:31.527Z,18.35
2022-12-17T12:54:16.345Z,17.42
2022-12-17T12:57:03.074Z,19.38
2022-12-17T12:59:50.159Z,17.35
2022-12-17T13:02:44.973Z,17.38
2022-12-17T13:05:35.375Z,18.40
2022-12-17T13:08:23.264Z,18.77
2022-12-17T13:10:55.735Z,18.10
2022-12-17T13:13:35.789Z,17.35
2022-12-17T13:16:23.073Z,17.25
2022-12-17T13:19:04.673Z,17.25
2022-12-17T13:21:36.040Z,19.63
2022-12-17T13:24:15.094Z,18.45
2022-12-17T13:26:48.007Z,17.40
2022-12-17T13:29:27.369Z,17.88
2022-12-17T13:32:08.041Z,17.35
2022-12-17T13:34:58.622Z,19.50
2022-12-17T13:37:42.401Z,18.05
2022-12-17T13:40:27.464Z,16.42
2022-12-17T13:42:58.368Z,16.80
2022-12-17T13:45:30.251Z,17.08
2022-12-17T13:48:02.223Z,17.15
2022-12-17T13:50:36.670Z,17.92
2022-12-17T13:53:17.089Z,16.90
2022-12-17T13:55:53.240Z,16.80
2022-12-17T13:58:26.487Z,17.20
2022-12-17T14:01:08.144Z,18.55
2022-12-17T14:06:31.325Z,20.85
2022-12-17T14:09:02.315Z,19.10
2022-12-17T14:11:48.178Z,19.90
2022-12-17T14:14:29.722Z,20.58
2022-12-17T14:17:00.779Z,20.67
2022-12-17T14:19:34.476Z,18.90
2022-12-17T14:22:08.429Z,18.35
2022-12-17T14:24:39.207Z,18.05
2022-12-17T14:27:26.775Z,18.83
2022-12-17T14:30:00.415Z,18.27
2022-12-17T14:32:37.066Z,19.10
2022-12-17T14:35:08.706Z,19.77
2022-12-17T14:37:42.776Z,19.27
2022-12-17T14:40:17.983Z,19.27
2022-12-17T14:42:48.897Z,20.23
2022-12-17T14:45:31.650Z,19.63
2022-12-17T14:48:07.159Z,19.48
2022-12-17T14:50:39.814Z,19.85
2022-12-17T14:53:29.871Z,19.45
2022-12-17T14:56:02.235Z,19.05
2022-12-17T14:58:32.959Z,19.90
2022-12-17T15:01:10.788Z,19.15
2022-12-17T15:03:46.171Z,18.73
2022-12-17T15:06:21.731Z,18.45
2022-12-17T15:08:58.323Z,21.23
2022-12-17T15:11:29.145Z,21.25
2022-12-17T15:14:00.662Z,25.13
2022-12-17T15:16:31.606Z,30.02
2022-12-17T15:19:04.546Z,31.13
2022-12-17T15:24:52.542Z,28.98
2022-12-17T15:27:26.233Z,32.58
2022-12-17T15:29:57.285Z,29.65
2022-12-17T15:32:29.464Z,31.38
2022-12-17T15:35:00.499Z,30.30
2022-12-17T15:37:33.709Z,30.63
2022-12-17T15:40:04.704Z,30.20
2022-12-17T15:42:51.067Z,31.80
2022-12-17T15:45:22.069Z,29.58
2022-12-17T15:47:52.845Z,29.45
2022-12-17T15:50:26.825Z,27.90
2022-12-17T15:52:58.045Z,29.30
2022-12-17T15:55:29.987Z,34.60
2022-12-17T15:58:03.979Z,35.15
2022-12-17T16:00:35.150Z,31.33
2022-12-17T16:03:06.058Z,30.25
2022-12-17T16:05:36.964Z,31.48
2022-12-17T16:08:08.033Z,29.73
2022-12-17T16:10:39.555Z,31.05
2022-12-17T16:13:15.285Z,31.50
2022-12-17T16:15:47.564Z,31.42
2022-12-17T16:18:18.374Z,29.75
2022-12-17T16:20:50.391Z,30.90
2022-12-17T16:23:22.195Z,31.83
2022-12-17T16:26:00.537Z,32.00
2022-12-17T16:28:34.563Z,30.50
2022-12-17T16:31:08.577Z,29.55
2022-12-17T16:33:42.323Z,31.20
2022-12-17T16:36:16.349Z,31.27
2022-12-17T16:38:53.164Z,31.42
2022-12-17T16:41:26.193Z,31.05
2022-12-17T16:43:59.559Z,32.60
2022-12-17T16:46:32.216Z,32.97
2022-12-17T16:49:08.439Z,31.33
2022-12-17T16:51:40.978Z,31.10
2022-12-17T16:54:15.759Z,32.63
2022-12-17T16:56:50.414Z,32.42
2022-12-17T16:59:24.662Z,31.27
2022-12-17T17:05:16.478Z,31.17
2022-12-17T17:07:47.241Z,32.00
2022-12-17T17:10:18.066Z,35.30
2022-12-17T17:12:48.801Z,34.13
2022-12-17T17:15:22.745Z,37.05
2022-12-17T17:18:01.563Z,35.58
2022-12-17T17:20:35.320Z,39.13
2022-12-17T17:23:06.216Z,38.78
2022-12-17T17:25:57.253Z,40.17
2022-12-17T17:28:29.010Z,42.58
2022-12-17T17:31:04.941Z,40.65
2022-12-17T17:33:37.759Z,42.97
2022-12-17T17:36:11.861Z,42.47
2022-12-17T17:38:47.550Z,42.00
2022-12-17T17:41:20.610Z,39.90
2022-12-17T17:43:57.492Z,42.00
2022-12-17T17:46:35.348Z,40.83
2022-12-17T17:49:11.077Z,38.60
2022-12-17T17:54:34.894Z,41.53
2022-12-17T17:57:06.258Z,40.35
2022-12-17T17:59:39.776Z,40.30
2022-12-17T18:02:14.528Z,43.35
2022-12-17T18:04:45.663Z,41.70
2022-12-17T18:07:25.112Z,43.47
2022-12-17T18:09:56.662Z,44.10
2022-12-17T18:12:40.006Z,44.55
2022-12-17T18:30:55.468Z,42.03
2022-12-17T18:33:26.940Z,43.08
2022-12-17T18:35:57.751Z,40.80
2022-12-17T18:38:30.968Z,40.38
2022-12-17T18:41:28.719Z,42.10
2022-12-17T18:44:01.399Z,42.20
2022-12-17T18:46:35.666Z,41.40
2022-12-17T18:49:08.907Z,44.05
2022-12-17T18:51:43.020Z,43.90
2022-12-17T18:54:17.100Z,42.17
2022-12-17T18:57:03.737Z,42.47
2022-12-17T18:59:35.050Z,40.28
2022-12-17T19:02:09.102Z,41.08
2022-12-17T19:04:40.006Z,41.70
2022-12-17T19:07:10.808Z,40.80
2022-12-17T19:09:42.379Z,41.03
2022-12-17T19:12:13.507Z,41.63
2022-12-17T19:14:45.610Z,42.55
2022-12-17T19:17:22.701Z,44.33
2022-12-17T19:19:53.629Z,47.10
2022-12-17T19:22:24.480Z,46.67
2022-12-17T19:24:58.016Z,48.00
2022-12-17T19:27:29.443Z,46.97
2022-12-17T19:30:00.297Z,44.92
2022-12-17T19:32:36.781Z,44.20
2022-12-17T19:35:10.217Z,48.30
2022-12-17T19:37:40.926Z,45.67
2022-12-17T19:40:15.013Z,45.83
2022-12-17T19:42:46.468Z,44.92
2022-12-17T19:45:20.825Z,40.25
2022-12-17T19:47:56.757Z,41.65
2022-12-17T19:50:27.518Z,40.65
2022-12-17T19:52:58.286Z,40.78
2022-12-17T19:55:30.926Z,38.28
2022-12-17T19:58:01.665Z,41.22
2022-12-17T20:00:33.821Z,37.95
2022-12-17T20:03:12.599Z,37.10
2022-12-17T20:05:46.068Z,39.08
2022-12-17T20:08:22.185Z,38.15
2022-12-17T20:13:50.000Z,36.13
2022-12-17T20:16:27.647Z,37.83
2022-12-17T20:19:02.037Z,38.00
2022-12-17T20:21:33.267Z,39.35
2022-12-17T20:24:04.462Z,37.72
2022-12-17T20:26:37.221Z,40.50
2022-12-17T20:29:09.053Z,38.72
2022-12-17T20:31:42.311Z,39.30
2022-12-17T20:34:21.099Z,39.15
2022-12-17T20:36:53.175Z,40.40
2022-12-17T20:39:29.839Z,39.53
2022-12-17T20:42:00.675Z,43.72
2022-12-17T20:44:31.616Z,43.10
2022-12-17T20:47:04.070Z,45.50
2022-12-17T20:49:37.583Z,43.30
2022-12-17T20:52:09.420Z,43.88
2022-12-17T20:54:40.366Z,44.42
2022-12-17T22:20:16.217Z,41.15
2022-12-17T22:22:47.436Z,40.20
2022-12-17T22:25:19.180Z,39.88
2022-12-17T22:27:50.069Z,39.50
2022-12-17T22:38:02.434Z,38.08
2022-12-17T22:44:07.712Z,38.40
2022-12-17T22:44:28.950Z,38.90
2022-12-17T22:45:17.714Z,38.05
2022-12-17T22:47:49.848Z,39.25
2022-12-17T22:50:27.640Z,39.38
2022-12-17T22:53:04.543Z,38.85
2022-12-17T22:55:37.151Z,41.67
2022-12-17T22:58:10.495Z,41.10
2022-12-17T23:00:41.639Z,41.03
2022-12-17T23:03:12.656Z,41.22
2022-12-17T23:05:45.131Z,38.88
2022-12-17T23:08:18.431Z,38.45
2022-12-17T23:10:52.230Z,38.33
2022-12-17T23:13:23.003Z,40.97
2022-12-17T23:15:57.563Z,38.97
2022-12-17T23:18:28.305Z,40.35
2022-12-17T23:20:59.359Z,39.05
2022-12-17T23:23:32.719Z,39.42
2022-12-17T23:26:09.941Z,35.90
2022-12-17T23:28:40.674Z,38.38
2022-12-17T23:31:12.703Z,40.20
2022-12-17T23:33:44.142Z,39.30
2022-12-17T23:36:16.671Z,38.10
2022-12-17T23:38:52.502Z,39.13
2022-12-17T23:41:25.900Z,42.22
2022-12-17T23:43:57.586Z,39.80
2022-12-17T23:46:30.646Z,45.33
2022-12-17T23:49:01.407Z,45.90
2022-12-17T23:51:32.696Z,46.33
2022-12-17T23:54:08.406Z,47.78
2022-12-17T23:56:39.208Z,47.53
2022-12-17T23:59:10.110Z,47.65
